LIBR/BDS METAR and TAF weather

Enter ICAO airport designator
Station Type Date Time Source
LIBR METAR 2019/12/05 21:50 UTC NOAA

LIBR 052150Z 13003KT 100V180 9999 BKN015 15/12 Q1025


Station Type Date Time Source
LIBR Decoded METAR 2019/12/05 21:50 UTC NOAA

Brindisi, Italy (LIBR) 40-39N 017-57E 10M
Dec 05, 2019 - 04:50 PM EST / 2019.12.05 2150 UTC
Wind: from the SE (130 degrees) at 3 MPH (3 KT) (direction variable):0
Visibility: greater than 7 mile(s):0
Sky conditions: mostly cloudy
Temperature: 59 F (15 C)
Dew Point: 53 F (12 C)
Relative Humidity: 82%
Pressure (altimeter): 30.27 in. Hg (1025 hPa)
ob: LIBR 052150Z 13003KT 100V180 9999 BKN015 15/12 Q1025
cycle: 22

Station Type Date Time Source
LIBR TAF 2019/12/05 18:21 UTC NOAA

TAF LIBR 051700Z 0518/0618 16012KT 9999 SCT030
TEMPO 0518/0603 4000 TSRA
BECMG 0604/0606 22010KT
TEMPO 0612/0618 4000 TSRA

Example: see airport list